Time;durP1;ratioP1;P1;durP2;ratioP2;P2;SDS_P1;SDS_P2;PMS_P1;PMS_P2;Temp;Humidity;BMP_temperature;BMP_pressure;BME280_temperature;BME280_humidity;BME280_pressure;Samples;Min_cycle;Max_cycle;Signal;HPM_P1;HPM_P2
2023/04/01 00:00:58;;;;;;;;;;;;;;;;;;5134552;27;2109;-41
2023/04/01 00:03:27;;;;;;;;;;;;;;;;;;5134238;27;1974;-41
2023/04/01 00:05:55;;;;;;;;;;;;;;;;;;5134613;27;1893;-40
2023/04/01 00:08:23;;;;;;;;;;;;;;;;;;5116510;27;1815;-40
2023/04/01 00:10:50;;;;;;;;;;;;;;;;;;5134778;27;2038;-49
2023/04/01 00:13:18;;;;;;;;;;;;;;;;;;5134364;27;2281;-40
2023/04/01 00:15:45;;;;;;;;;;;;;;;;;;5134164;27;1964;-41
2023/04/01 00:18:13;;;;;;;;;;;;;;;;;;5134331;27;2047;-40
2023/04/01 00:20:44;;;;;;;;;;;;;;;;;;5134642;27;1921;-41
2023/04/01 00:23:12;;;;;;;;;;;;;;;;;;5134120;27;1930;-40
2023/04/01 00:25:41;;;;;;;;;;;;;;;;;;5134464;27;1971;-40
2023/04/01 00:28:09;;;;;;;;;;;;;;;;;;5133960;27;1833;-40
2023/04/01 00:30:37;;;;;;;;;;;;;;;;;;5134218;27;1917;-40
2023/04/01 00:33:04;;;;;;;;;;;;;;;;;;5134192;27;1856;-40
2023/04/01 00:35:32;;;;;;;;;;;;;;;;;;5133978;27;1898;-53
2023/04/01 00:38:00;;;;;;;;;;;;;;;;;;5115196;27;1968;-41
2023/04/01 00:40:29;;;;;;;;;;;;;;;;;;5133725;27;2077;-41
2023/04/01 00:42:56;;;;;;;;;;;;;;;;;;5133972;27;2132;-59
2023/04/01 00:45:38;;;;;;;;;;;;;;;;;;5114987;27;2089;-40
2023/04/01 00:48:16;;;;;;;;;;;;;;;;;;5115176;27;1929;-40
2023/04/01 00:51:07;;;;;;;;;;;;;;;;;;5133670;27;1885;-39
2023/04/01 00:53:38;;;;;;;;;;;;;;;;;;5112662;27;1974;-52
2023/04/01 00:56:13;;;;;;;;;;;;;;;;;;5122544;27;2039;-41
2023/04/01 00:58:46;;;;;;;;;;;;;;;;;;5153577;27;2004;-40
2023/04/01 01:01:13;;;;;;;;;;;;;;;;;;5154037;27;2037;-41
2023/04/01 01:03:40;;;;;;;;;;;;;;;;;;5135476;27;1970;-49
2023/04/01 01:06:22;;;;;;;;;;;;;;;;;;5135120;27;1970;-41
2023/04/01 01:09:09;;;;;;;;;;;;;;;;;;5135515;27;1495;-40
2023/04/01 01:11:36;;;;;;;;;;;;;;;;;;5135313;27;2085;-40
2023/04/01 01:14:20;;;;;;;;;;;;;;;;;;5135053;27;2576;-41
2023/04/01 01:16:51;;;;;;;;;;;;;;;;;;5153952;27;1871;-41
2023/04/01 01:19:32;;;;;;;;;;;;;;;;;;5153833;27;1932;-44
2023/04/01 01:22:05;;;;;;;;;;;;;;;;;;5153406;27;2020;-45
2023/04/01 01:24:32;;;;;;;;;;;;;;;;;;5153732;27;1927;-40
2023/04/01 01:27:04;;;;;;;;;;;;;;;;;;5134945;27;1946;-41
2023/04/01 01:30:10;;;;;;;;;;;;;;;;;;5134733;27;1938;-40
2023/04/01 01:32:52;;;;;;;;;;;;;;;;;;5109903;28;1893;-40
2023/04/01 01:35:29;;;;;;;;;;;;;;;;;;5093062;28;2340;-40
2023/04/01 01:38:04;;;;;;;;;;;;;;;;;;5138447;27;1943;-41
2023/04/01 01:40:33;;;;;;;;;;;;;;;;;;5134567;27;1823;-41
2023/04/01 01:43:04;;;;;;;;;;;;;;;;;;5134824;27;1978;-41
2023/04/01 01:45:33;;;;;;;;;;;;;;;;;;5152880;27;2000;-41
2023/04/01 01:48:05;;;;;;;;;;;;;;;;;;5134627;27;2215;-57
2023/04/01 01:50:33;;;;;;;;;;;;;;;;;;5134542;27;1875;-45
2023/04/01 01:53:05;;;;;;;;;;;;;;;;;;5152960;27;1857;-40
2023/04/01 01:55:34;;;;;;;;;;;;;;;;;;5131564;27;2196;-48
2023/04/01 01:58:22;;;;;;;;;;;;;;;;;;5113932;27;1888;-41
2023/04/01 02:00:54;;;;;;;;;;;;;;;;;;5110375;27;2133;-40
2023/04/01 02:03:24;;;;;;;;;;;;;;;;;;5113780;27;1633;-41
2023/04/01 02:05:53;;;;;;;;;;;;;;;;;;5113957;27;2165;-40
2023/04/01 02:08:34;;;;;;;;;;;;;;;;;;5132627;27;1958;-41
2023/04/01 02:11:04;;;;;;;;;;;;;;;;;;5113766;27;2151;-40
2023/04/01 02:13:42;;;;;;;;;;;;;;;;;;5113790;27;1917;-40
2023/04/01 02:16:15;;;;;;;;;;;;;;;;;;5131906;27;1838;-40
2023/04/01 02:18:45;;;;;;;;;;;;;;;;;;5132360;27;2018;-41
2023/04/01 02:21:13;;;;;;;;;;;;;;;;;;5132124;27;2013;-40
2023/04/01 02:23:41;;;;;;;;;;;;;;;;;;5131892;27;2060;-40
2023/04/01 02:26:09;;;;;;;;;;;;;;;;;;5113297;27;1890;-40
2023/04/01 02:28:38;;;;;;;;;;;;;;;;;;5113460;27;2012;-39
2023/04/01 02:31:06;;;;;;;;;;;;;;;;;;5130612;27;2033;-40
2023/04/01 02:33:33;;;;;;;;;;;;;;;;;;5132070;28;2015;-40
2023/04/01 02:36:00;;;;;;;;;;;;;;;;;;5131982;28;1917;-57
2023/04/01 02:38:28;;;;;;;;;;;;;;;;;;5132022;28;2315;-40
2023/04/01 02:40:59;;;;;;;;;;;;;;;;;;5131767;28;2079;-41
2023/04/01 02:43:31;;;;;;;;;;;;;;;;;;5147716;27;1832;-55
2023/04/01 02:45:58;;;;;;;;;;;;;;;;;;5129980;28;2240;-47
2023/04/01 02:48:26;;;;;;;;;;;;;;;;;;5131928;28;2196;-40
2023/04/01 02:50:53;;;;;;;;;;;;;;;;;;5130645;28;2090;-41
2023/04/01 02:53:20;;;;;;;;;;;;;;;;;;5131934;28;1912;-40
2023/04/01 02:55:50;;;;;;;;;;;;;;;;;;5126424;28;1696;-57
2023/04/01 02:58:17;;;;;;;;;;;;;;;;;;5111279;28;1951;-40
2023/04/01 03:00:44;;;;;;;;;;;;;;;;;;5109914;28;1870;-50
2023/04/01 03:03:13;;;;;;;;;;;;;;;;;;5111113;28;2033;-41
2023/04/01 03:05:40;;;;;;;;;;;;;;;;;;5111165;28;2000;-41
2023/04/01 03:08:08;;;;;;;;;;;;;;;;;;5110768;28;1905;-41
2023/04/01 03:10:35;;;;;;;;;;;;;;;;;;5111279;28;1933;-41
2023/04/01 03:13:03;;;;;;;;;;;;;;;;;;5109843;28;2226;-40
2023/04/01 03:15:30;;;;;;;;;;;;;;;;;;5112784;28;1995;-40
2023/04/01 03:17:58;;;;;;;;;;;;;;;;;;5130112;28;2029;-52
2023/04/01 03:20:25;;;;;;;;;;;;;;;;;;5130211;28;1990;-40
2023/04/01 03:22:53;;;;;;;;;;;;;;;;;;5131790;27;2027;-40
2023/04/01 03:25:23;;;;;;;;;;;;;;;;;;5131549;27;1989;-40
2023/04/01 03:27:50;;;;;;;;;;;;;;;;;;5114956;28;1984;-40
2023/04/01 03:30:18;;;;;;;;;;;;;;;;;;5113304;28;1827;-40
2023/04/01 03:32:49;;;;;;;;;;;;;;;;;;5114790;27;2062;-41
2023/04/01 03:35:17;;;;;;;;;;;;;;;;;;5114640;28;1732;-41
2023/04/01 03:37:45;;;;;;;;;;;;;;;;;;5114453;28;2173;-43
2023/04/01 03:40:12;;;;;;;;;;;;;;;;;;5113060;28;1914;-40
2023/04/01 03:42:39;;;;;;;;;;;;;;;;;;5113103;28;1974;-42
2023/04/01 03:45:07;;;;;;;;;;;;;;;;;;5114493;28;1938;-41
2023/04/01 03:47:34;;;;;;;;;;;;;;;;;;5131428;27;2019;-40
2023/04/01 03:50:02;;;;;;;;;;;;;;;;;;5133588;27;2029;-41
2023/04/01 03:52:29;;;;;;;;;;;;;;;;;;5133637;27;1950;-40
2023/04/01 03:54:56;;;;;;;;;;;;;;;;;;5133575;27;1868;-44
2023/04/01 03:57:26;;;;;;;;;;;;;;;;;;5154039;27;1972;-39
2023/04/01 03:59:58;;;;;;;;;;;;;;;;;;5136770;27;1933;-41
2023/04/01 04:02:26;;;;;;;;;;;;;;;;;;5136310;27;2302;-41
2023/04/01 04:04:54;;;;;;;;;;;;;;;;;;5155416;27;2018;-41
2023/04/01 04:07:27;;;;;;;;;;;;;;;;;;5136522;27;2031;-40
2023/04/01 04:10:04;;;;;;;;;;;;;;;;;;5136251;27;2118;-43
2023/04/01 04:12:32;;;;;;;;;;;;;;;;;;5136513;27;2117;-40
2023/04/01 04:14:59;;;;;;;;;;;;;;;;;;5136631;27;1947;-41
2023/04/01 04:17:26;;;;;;;;;;;;;;;;;;5136403;27;1825;-41
2023/04/01 04:19:54;;;;;;;;;;;;;;;;;;5136546;27;2093;-41
2023/04/01 04:22:21;;;;;;;;;;;;;;;;;;5136599;27;1975;-41
2023/04/01 04:24:48;;;;;;;;;;;;;;;;;;5136588;27;1970;-41
2023/04/01 04:27:16;;;;;;;;;;;;;;;;;;5136346;27;2032;-40
2023/04/01 04:29:53;;;;;;;;;;;;;;;;;;5136266;27;1968;-40
2023/04/01 04:32:21;;;;;;;;;;;;;;;;;;5136545;27;2076;-41
2023/04/01 04:34:48;;;;;;;;;;;;;;;;;;5135269;27;1987;-42
2023/04/01 04:37:15;;;;;;;;;;;;;;;;;;5136219;27;2198;-41
2023/04/01 04:39:43;;;;;;;;;;;;;;;;;;5130619;27;2018;-44
2023/04/01 04:42:10;;;;;;;;;;;;;;;;;;5134061;27;2064;-40
2023/04/01 04:44:37;;;;;;;;;;;;;;;;;;5098729;27;1988;-44
2023/04/01 04:47:05;;;;;;;;;;;;;;;;;;5133736;27;1384;-40
2023/04/01 04:49:32;;;;;;;;;;;;;;;;;;5133496;27;2017;-39
2023/04/01 04:52:05;;;;;;;;;;;;;;;;;;5133594;27;2232;-44
2023/04/01 04:54:34;;;;;;;;;;;;;;;;;;5115043;27;2057;-41
2023/04/01 04:57:03;;;;;;;;;;;;;;;;;;5127330;27;1967;-42
2023/04/01 04:59:36;;;;;;;;;;;;;;;;;;5114917;27;2017;-41
2023/04/01 05:02:11;;;;;;;;;;;;;;;;;;5114778;27;2019;-43
2023/04/01 05:04:38;;;;;;;;;;;;;;;;;;5131613;27;1840;-40
2023/04/01 05:07:08;;;;;;;;;;;;;;;;;;5115199;27;1809;-40
2023/04/01 05:09:36;;;;;;;;;;;;;;;;;;5133175;27;1949;-41
2023/04/01 05:12:03;;;;;;;;;;;;;;;;;;5114836;27;2017;-42
2023/04/01 05:14:50;;;;;;;;;;;;;;;;;;5115030;27;2133;-40
2023/04/01 05:17:17;;;;;;;;;;;;;;;;;;5132986;27;2092;-40
2023/04/01 05:19:44;;;;;;;;;;;;;;;;;;5132903;27;1869;-45
2023/04/01 05:22:11;;;;;;;;;;;;;;;;;;5132798;27;1997;-42
2023/04/01 05:24:39;;;;;;;;;;;;;;;;;;5114460;27;1862;-41
2023/04/01 05:27:07;;;;;;;;;;;;;;;;;;5114500;27;2163;-49
2023/04/01 05:29:38;;;;;;;;;;;;;;;;;;5131416;27;2107;-41
2023/04/01 05:32:09;;;;;;;;;;;;;;;;;;5114283;27;2121;-40
2023/04/01 05:34:37;;;;;;;;;;;;;;;;;;5114308;27;2081;-40
2023/04/01 05:37:04;;;;;;;;;;;;;;;;;;5114405;27;2042;-43
2023/04/01 05:39:32;;;;;;;;;;;;;;;;;;5132759;27;1848;-58
2023/04/01 05:41:59;;;;;;;;;;;;;;;;;;5132486;27;1999;-41
2023/04/01 05:44:27;;;;;;;;;;;;;;;;;;5132406;27;2096;-40
2023/04/01 05:47:04;;;;;;;;;;;;;;;;;;5132301;27;1947;-41
2023/04/01 05:49:33;;;;;;;;;;;;;;;;;;5114053;27;2029;-40
2023/04/01 05:52:01;;;;;;;;;;;;;;;;;;5132247;27;1999;-40
2023/04/01 05:54:30;;;;;;;;;;;;;;;;;;5113915;27;1768;-41
2023/04/01 05:56:57;;;;;;;;;;;;;;;;;;5128810;27;2116;-40
2023/04/01 05:59:24;;;;;;;;;;;;;;;;;;5152690;27;1972;-40
2023/04/01 06:01:52;;;;;;;;;;;;;;;;;;5134513;27;2099;-42
2023/04/01 06:04:20;;;;;;;;;;;;;;;;;;5153152;27;1949;-43
2023/04/01 06:06:48;;;;;;;;;;;;;;;;;;5152566;27;1843;-40
2023/04/01 06:09:16;;;;;;;;;;;;;;;;;;5134289;27;2048;-43
2023/04/01 06:11:55;;;;;;;;;;;;;;;;;;5134225;27;1979;-42
2023/04/01 06:14:41;;;;;;;;;;;;;;;;;;5133881;27;2077;-41
2023/04/01 06:17:29;;;;;;;;;;;;;;;;;;5133778;27;1959;-40
2023/04/01 06:20:07;;;;;;;;;;;;;;;;;;5134055;27;2127;-46
2023/04/01 06:22:45;;;;;;;;;;;;;;;;;;5134023;27;2142;-43
2023/04/01 06:25:21;;;;;;;;;;;;;;;;;;5134150;27;2173;-40
2023/04/01 06:27:54;;;;;;;;;;;;;;;;;;5134207;27;1991;-41
2023/04/01 06:30:21;;;;;;;;;;;;;;;;;;5134103;27;1956;-48
2023/04/01 06:33:01;;;;;;;;;;;;;;;;;;5152584;27;1911;-41
2023/04/01 06:35:45;;;;;;;;;;;;;;;;;;5134152;27;2081;-42
2023/04/01 06:38:23;;;;;;;;;;;;;;;;;;5133843;27;1997;-41
2023/04/01 06:41:15;;;;;;;;;;;;;;;;;;5133787;27;2166;-41
2023/04/01 06:43:49;;;;;;;;;;;;;;;;;;5133610;27;1996;-40
2023/04/01 06:46:42;;;;;;;;;;;;;;;;;;5152362;27;1837;-40
2023/04/01 06:49:36;;;;;;;;;;;;;;;;;;5113017;27;1423;-41
2023/04/01 06:52:35;;;;;;;;;;;;;;;;;;5152532;27;2027;-41
2023/04/01 06:55:27;;;;;;;;;;;;;;;;;;5141081;27;2037;-42
2023/04/01 06:58:13;;;;;;;;;;;;;;;;;;5133451;27;2242;-42
2023/04/01 07:00:44;;;;;;;;;;;;;;;;;;5135730;27;2017;-42
2023/04/01 07:03:12;;;;;;;;;;;;;;;;;;5117104;27;1914;-42
2023/04/01 07:05:40;;;;;;;;;;;;;;;;;;5116889;27;2112;-43
2023/04/01 07:08:12;;;;;;;;;;;;;;;;;;5134149;27;1908;-41
2023/04/01 07:10:42;;;;;;;;;;;;;;;;;;5135534;27;2084;-43
2023/04/01 07:13:32;;;;;;;;;;;;;;;;;;5135399;27;1996;-42
2023/04/01 07:16:04;;;;;;;;;;;;;;;;;;5133487;27;1911;-42
2023/04/01 07:18:55;;;;;;;;;;;;;;;;;;5116659;27;1956;-43
2023/04/01 07:21:35;;;;;;;;;;;;;;;;;;5129641;27;2131;-43
2023/04/01 07:24:24;;;;;;;;;;;;;;;;;;5137131;27;2001;-42
2023/04/01 07:27:02;;;;;;;;;;;;;;;;;;5137182;27;1962;-42
2023/04/01 07:29:34;;;;;;;;;;;;;;;;;;5137500;27;2065;-43
2023/04/01 07:32:07;;;;;;;;;;;;;;;;;;5136855;27;2104;-43
2023/04/01 07:34:40;;;;;;;;;;;;;;;;;;5155990;27;2384;-42
2023/04/01 07:37:28;;;;;;;;;;;;;;;;;;5137054;27;1973;-45
2023/04/01 07:39:55;;;;;;;;;;;;;;;;;;5137179;27;2262;-42
2023/04/01 07:42:51;;;;;;;;;;;;;;;;;;5136839;27;2255;-42
2023/04/01 07:45:21;;;;;;;;;;;;;;;;;;5136435;27;1813;-43
2023/04/01 07:47:58;;;;;;;;;;;;;;;;;;5155416;27;2098;-43
2023/04/01 07:50:32;;;;;;;;;;;;;;;;;;5152729;27;1950;-45
2023/04/01 07:53:11;;;;;;;;;;;;;;;;;;5116271;27;2126;-42
2023/04/01 07:55:44;;;;;;;;;;;;;;;;;;5116162;27;1911;-42
2023/04/01 07:58:50;;;;;;;;;;;;;;;;;;5116127;27;1902;-44
2023/04/01 08:01:37;;;;;;;;;;;;;;;;;;5111683;28;1829;-42
2023/04/01 08:04:17;;;;;;;;;;;;;;;;;;5094229;28;1971;-43
2023/04/01 08:06:47;;;;;;;;;;;;;;;;;;5127640;27;1886;-42
2023/04/01 08:09:22;;;;;;;;;;;;;;;;;;5115559;27;2005;-41
2023/04/01 08:12:43;;;;;;;;;;;;;;;;;;5088522;27;2146;-41
2023/04/01 08:15:29;;;;;;;;;;;;;;;;;;5134317;27;2133;-39
2023/04/01 08:18:11;;;;;;;;;;;;;;;;;;5115734;27;1744;-40
2023/04/01 08:20:47;;;;;;;;;;;;;;;;;;5134520;27;1916;-41
2023/04/01 08:23:17;;;;;;;;;;;;;;;;;;5115418;27;2080;-38
2023/04/01 08:26:00;;;;;;;;;;;;;;;;;;5115718;27;1971;-39
2023/04/01 08:28:46;;;;;;;;;;;;;;;;;;5115241;27;1835;-41
2023/04/01 08:31:16;;;;;;;;;;;;;;;;;;5114930;27;1859;-39
2023/04/01 08:33:46;;;;;;;;;;;;;;;;;;5133942;27;2147;-45
2023/04/01 08:36:33;;;;;;;;;;;;;;;;;;5115412;27;2000;-46
2023/04/01 08:39:21;;;;;;;;;;;;;;;;;;5115334;27;1928;-40
2023/04/01 08:42:08;;;;;;;;;;;;;;;;;;5115143;27;1983;-46
2023/04/01 08:45:17;;;;;;;;;;;;;;;;;;5122613;27;1983;-48
2023/04/01 08:47:52;;;;;;;;;;;;;;;;;;5091324;28;2139;-41
2023/04/01 08:50:23;;;;;;;;;;;;;;;;;;5092634;28;1870;-42
2023/04/01 08:53:46;;;;;;;;;;;;;;;;;;5088246;28;1831;-44
2023/04/01 08:56:35;;;;;;;;;;;;;;;;;;5090800;28;2145;-46
2023/04/01 08:59:18;;;;;;;;;;;;;;;;;;5091223;28;2030;-52
2023/04/01 09:01:55;;;;;;;;;;;;;;;;;;5091076;28;1898;-41
2023/04/01 09:05:02;;;;;;;;;;;;;;;;;;5089028;28;1907;-40
2023/04/01 09:07:29;;;;;;;;;;;;;;;;;;5090806;28;1965;-41
2023/04/01 09:10:09;;;;;;;;;;;;;;;;;;5090828;28;2020;-44
2023/04/01 09:12:55;;;;;;;;;;;;;;;;;;5090816;28;1996;-40
2023/04/01 09:15:35;;;;;;;;;;;;;;;;;;5090751;28;2058;-40
2023/04/01 09:18:22;;;;;;;;;;;;;;;;;;5090778;28;2019;-39
2023/04/01 09:21:11;;;;;;;;;;;;;;;;;;5090010;28;2073;-40
2023/04/01 09:23:56;;;;;;;;;;;;;;;;;;5090689;28;1986;-39
2023/04/01 09:26:35;;;;;;;;;;;;;;;;;;5090822;28;2027;-43
2023/04/01 09:29:06;;;;;;;;;;;;;;;;;;5090600;28;2058;-40
2023/04/01 09:31:47;;;;;;;;;;;;;;;;;;5090473;28;1936;-40
2023/04/01 09:34:51;;;;;;;;;;;;;;;;;;5098345;28;1957;-39
2023/04/01 09:37:40;;;;;;;;;;;;;;;;;;5090456;28;2030;-40
2023/04/01 09:40:18;;;;;;;;;;;;;;;;;;5090175;28;2213;-39
2023/04/01 09:43:10;;;;;;;;;;;;;;;;;;5090286;28;1992;-39
2023/04/01 09:45:43;;;;;;;;;;;;;;;;;;5095965;27;2019;-40
2023/04/01 09:48:10;;;;;;;;;;;;;;;;;;5113869;27;1930;-39
2023/04/01 09:50:51;;;;;;;;;;;;;;;;;;5132432;27;2081;-39
2023/04/01 09:53:31;;;;;;;;;;;;;;;;;;5114053;27;1896;-40
2023/04/01 09:56:19;;;;;;;;;;;;;;;;;;5120479;27;2031;-39
2023/04/01 09:59:02;;;;;;;;;;;;;;;;;;5133792;27;1867;-40
2023/04/01 10:02:13;;;;;;;;;;;;;;;;;;5152644;27;1935;-39
2023/04/01 10:04:41;;;;;;;;;;;;;;;;;;5134477;27;1994;-39
2023/04/01 10:07:27;;;;;;;;;;;;;;;;;;5152954;27;1834;-39
2023/04/01 10:10:13;;;;;;;;;;;;;;;;;;5134231;27;1860;-39
2023/04/01 10:12:59;;;;;;;;;;;;;;;;;;5134296;27;2087;-41
2023/04/01 10:15:38;;;;;;;;;;;;;;;;;;5134091;27;2189;-39
2023/04/01 10:18:15;;;;;;;;;;;;;;;;;;5120517;27;2130;-41
2023/04/01 10:20:54;;;;;;;;;;;;;;;;;;5132239;27;2084;-40
2023/04/01 10:23:30;;;;;;;;;;;;;;;;;;5113357;27;1981;-48
2023/04/01 10:26:01;;;;;;;;;;;;;;;;;;5113335;27;2065;-48
2023/04/01 10:28:38;;;;;;;;;;;;;;;;;;5113619;28;2087;-40
2023/04/01 10:31:11;;;;;;;;;;;;;;;;;;5131168;27;2137;-40
2023/04/01 10:33:56;;;;;;;;;;;;;;;;;;5112858;28;1972;-40
2023/04/01 10:36:30;;;;;;;;;;;;;;;;;;5132044;28;1926;-40
2023/04/01 10:39:13;;;;;;;;;;;;;;;;;;5113340;28;2097;-47
2023/04/01 10:41:59;;;;;;;;;;;;;;;;;;5113517;28;2046;-48
2023/04/01 10:45:03;;;;;;;;;;;;;;;;;;5131778;28;2037;-40
2023/04/01 10:47:56;;;;;;;;;;;;;;;;;;5112820;28;1936;-40
2023/04/01 10:50:25;;;;;;;;;;;;;;;;;;5113378;28;1951;-40
2023/04/01 10:53:05;;;;;;;;;;;;;;;;;;5112958;28;1997;-45
2023/04/01 10:56:01;;;;;;;;;;;;;;;;;;5137770;27;1890;-45
2023/04/01 10:59:04;;;;;;;;;;;;;;;;;;5152619;27;2062;-40
2023/04/01 11:01:44;;;;;;;;;;;;;;;;;;5152400;27;2207;-40
2023/04/01 11:04:40;;;;;;;;;;;;;;;;;;5152104;27;1991;-41
2023/04/01 11:07:35;;;;;;;;;;;;;;;;;;5152142;27;2089;-43
2023/04/01 11:10:31;;;;;;;;;;;;;;;;;;5152142;27;1724;-40
2023/04/01 11:13:00;;;;;;;;;;;;;;;;;;5133190;27;2062;-42
2023/04/01 11:15:30;;;;;;;;;;;;;;;;;;5133331;27;1965;-40
2023/04/01 11:18:19;;;;;;;;;;;;;;;;;;5133437;27;2033;-40
2023/04/01 11:20:47;;;;;;;;;;;;;;;;;;5133773;27;1751;-43
2023/04/01 11:23:27;;;;;;;;;;;;;;;;;;5133318;27;2102;-48
2023/04/01 11:25:54;;;;;;;;;;;;;;;;;;5152214;27;1857;-40
2023/04/01 11:28:50;;;;;;;;;;;;;;;;;;5148848;27;1878;-40
2023/04/01 11:31:25;;;;;;;;;;;;;;;;;;5152094;27;2100;-39
2023/04/01 11:33:54;;;;;;;;;;;;;;;;;;5122724;28;1845;-39
2023/04/01 11:36:33;;;;;;;;;;;;;;;;;;5112652;28;1850;-40
2023/04/01 11:39:15;;;;;;;;;;;;;;;;;;5112998;28;2144;-39
2023/04/01 11:42:09;;;;;;;;;;;;;;;;;;5131425;27;2085;-39
2023/04/01 11:45:28;;;;;;;;;;;;;;;;;;5071313;28;2041;-40
2023/04/01 11:48:15;;;;;;;;;;;;;;;;;;5071116;28;2175;-39
2023/04/01 11:51:01;;;;;;;;;;;;;;;;;;5115579;27;1359;-39
2023/04/01 11:53:34;;;;;;;;;;;;;;;;;;5116058;27;2007;-41
2023/04/01 11:56:13;;;;;;;;;;;;;;;;;;5141741;27;2049;-39
2023/04/01 11:58:40;;;;;;;;;;;;;;;;;;5155216;27;1514;-40
2023/04/01 12:01:13;;;;;;;;;;;;;;;;;;5155123;27;2113;-39
2023/04/01 12:03:46;;;;;;;;;;;;;;;;;;5155011;27;1969;-40
2023/04/01 12:06:18;;;;;;;;;;;;;;;;;;5155119;27;1903;-40
2023/04/01 12:09:03;;;;;;;;;;;;;;;;;;5155076;27;2197;-40
2023/04/01 12:11:39;;;;;;;;;;;;;;;;;;5154920;27;1962;-39
2023/04/01 12:14:12;;;;;;;;;;;;;;;;;;5155331;27;2058;-39
2023/04/01 12:16:51;;;;;;;;;;;;;;;;;;5136705;27;1954;-40
2023/04/01 12:19:30;;;;;;;;;;;;;;;;;;5154661;27;1809;-40
2023/04/01 12:22:10;;;;;;;;;;;;;;;;;;5155087;27;2012;-40
2023/04/01 12:24:49;;;;;;;;;;;;;;;;;;5154719;27;2139;-40
2023/04/01 12:27:23;;;;;;;;;;;;;;;;;;5155025;27;2017;-40
2023/04/01 12:30:03;;;;;;;;;;;;;;;;;;5154803;27;2005;-40
2023/04/01 12:32:46;;;;;;;;;;;;;;;;;;5154313;27;1742;-38
2023/04/01 12:35:16;;;;;;;;;;;;;;;;;;5154737;27;2073;-40
2023/04/01 12:37:49;;;;;;;;;;;;;;;;;;5154944;27;1872;-40
2023/04/01 12:40:41;;;;;;;;;;;;;;;;;;5154575;27;1976;-40
2023/04/01 12:43:27;;;;;;;;;;;;;;;;;;5154430;27;2049;-40
2023/04/01 12:46:05;;;;;;;;;;;;;;;;;;5154434;27;1806;-39
2023/04/01 12:48:40;;;;;;;;;;;;;;;;;;5154483;27;1832;-41
2023/04/01 12:51:20;;;;;;;;;;;;;;;;;;5154535;27;1944;-40
2023/04/01 12:53:57;;;;;;;;;;;;;;;;;;5154157;27;1918;-40
2023/04/01 12:56:44;;;;;;;;;;;;;;;;;;5142117;27;1869;-40
2023/04/01 12:59:11;;;;;;;;;;;;;;;;;;5133565;27;1923;-40
2023/04/01 13:01:57;;;;;;;;;;;;;;;;;;5133271;27;2334;-39
2023/04/01 13:04:27;;;;;;;;;;;;;;;;;;5132745;27;2027;-39
2023/04/01 13:06:57;;;;;;;;;;;;;;;;;;5133550;27;1948;-40
2023/04/01 13:09:24;;;;;;;;;;;;;;;;;;5133329;27;1975;-40
2023/04/01 13:11:54;;;;;;;;;;;;;;;;;;5133097;27;1940;-40
2023/04/01 13:14:21;;;;;;;;;;;;;;;;;;5133026;27;1860;-40
2023/04/01 13:17:00;;;;;;;;;;;;;;;;;;5133025;27;1829;-40
2023/04/01 13:19:32;;;;;;;;;;;;;;;;;;5133276;27;1864;-39
2023/04/01 13:22:15;;;;;;;;;;;;;;;;;;5132933;27;1962;-40
2023/04/01 13:25:03;;;;;;;;;;;;;;;;;;5133091;27;1931;-40
2023/04/01 13:27:44;;;;;;;;;;;;;;;;;;5133049;27;1980;-39
2023/04/01 13:30:26;;;;;;;;;;;;;;;;;;5132845;27;1926;-41
2023/04/01 13:33:01;;;;;;;;;;;;;;;;;;5133070;27;1855;-47
2023/04/01 13:35:34;;;;;;;;;;;;;;;;;;5132640;27;1989;-40
2023/04/01 13:38:11;;;;;;;;;;;;;;;;;;5132655;27;2057;-41
2023/04/01 13:40:57;;;;;;;;;;;;;;;;;;5132678;27;1933;-40
2023/04/01 13:43:34;;;;;;;;;;;;;;;;;;5133320;27;1907;-39
2023/04/01 13:46:02;;;;;;;;;;;;;;;;;;5114239;27;1937;-40
2023/04/01 13:48:32;;;;;;;;;;;;;;;;;;5132435;27;2069;-40
2023/04/01 13:51:17;;;;;;;;;;;;;;;;;;5132584;27;1942;-42
2023/04/01 13:53:51;;;;;;;;;;;;;;;;;;5132358;27;2008;-40
2023/04/01 13:56:37;;;;;;;;;;;;;;;;;;5132221;27;1998;-40
2023/04/01 13:59:06;;;;;;;;;;;;;;;;;;5132303;27;1956;-40
2023/04/01 14:01:37;;;;;;;;;;;;;;;;;;5132511;27;2009;-40
2023/04/01 14:04:14;;;;;;;;;;;;;;;;;;5132143;27;1969;-40
2023/04/01 14:07:00;;;;;;;;;;;;;;;;;;5132004;27;1992;-39
2023/04/01 14:09:46;;;;;;;;;;;;;;;;;;5132152;27;1905;-40
2023/04/01 14:12:21;;;;;;;;;;;;;;;;;;5132186;27;1905;-40
2023/04/01 14:14:57;;;;;;;;;;;;;;;;;;5131668;27;2102;-40
2023/04/01 14:17:32;;;;;;;;;;;;;;;;;;5131959;27;1998;-40
2023/04/01 14:20:19;;;;;;;;;;;;;;;;;;5132056;27;2167;-43
2023/04/01 14:22:59;;;;;;;;;;;;;;;;;;5132417;27;2121;-40
2023/04/01 14:25:41;;;;;;;;;;;;;;;;;;5131960;27;1986;-44
2023/04/01 14:28:11;;;;;;;;;;;;;;;;;;5131623;27;2018;-39
2023/04/01 14:30:51;;;;;;;;;;;;;;;;;;5132096;27;1892;-39
2023/04/01 14:33:37;;;;;;;;;;;;;;;;;;5131963;27;1996;-40
2023/04/01 14:36:20;;;;;;;;;;;;;;;;;;5131995;28;1777;-40
2023/04/01 14:38:53;;;;;;;;;;;;;;;;;;5131934;28;2220;-39
2023/04/01 14:41:35;;;;;;;;;;;;;;;;;;5131975;28;1995;-40
2023/04/01 14:44:08;;;;;;;;;;;;;;;;;;5131566;28;1903;-38
2023/04/01 14:46:36;;;;;;;;;;;;;;;;;;5113084;28;2085;-40
2023/04/01 14:49:21;;;;;;;;;;;;;;;;;;5131306;28;1979;-40
2023/04/01 14:51:49;;;;;;;;;;;;;;;;;;5131665;28;1973;-43
2023/04/01 14:54:29;;;;;;;;;;;;;;;;;;5131670;28;1975;-49
2023/04/01 14:57:03;;;;;;;;;;;;;;;;;;5146781;27;2108;-44
2023/04/01 14:59:30;;;;;;;;;;;;;;;;;;5133707;27;2082;-46
2023/04/01 15:02:16;;;;;;;;;;;;;;;;;;5133682;27;1788;-40
2023/04/01 15:04:47;;;;;;;;;;;;;;;;;;5152364;27;2007;-41
2023/04/01 15:07:24;;;;;;;;;;;;;;;;;;5152256;27;1804;-41
2023/04/01 15:09:57;;;;;;;;;;;;;;;;;;5152483;27;2216;-40
2023/04/01 15:12:33;;;;;;;;;;;;;;;;;;5152778;27;2062;-42
2023/04/01 15:15:12;;;;;;;;;;;;;;;;;;5152238;27;2004;-43
2023/04/01 15:17:45;;;;;;;;;;;;;;;;;;5151970;27;2065;-45
2023/04/01 15:20:31;;;;;;;;;;;;;;;;;;5155607;27;1865;-39
2023/04/01 15:23:07;;;;;;;;;;;;;;;;;;5156079;27;1937;-40
2023/04/01 15:25:43;;;;;;;;;;;;;;;;;;5156048;27;2000;-40
2023/04/01 15:28:10;;;;;;;;;;;;;;;;;;5156059;27;2104;-40
2023/04/01 15:30:38;;;;;;;;;;;;;;;;;;5156088;27;2084;-39
2023/04/01 15:33:23;;;;;;;;;;;;;;;;;;5155881;27;1870;-40
2023/04/01 15:35:53;;;;;;;;;;;;;;;;;;5155894;27;1756;-40
2023/04/01 15:38:38;;;;;;;;;;;;;;;;;;5156003;27;1886;-40
2023/04/01 15:41:15;;;;;;;;;;;;;;;;;;5155753;27;1802;-40
2023/04/01 15:43:49;;;;;;;;;;;;;;;;;;5155638;27;1888;-40
2023/04/01 15:46:35;;;;;;;;;;;;;;;;;;5155158;27;1977;-39
2023/04/01 15:49:05;;;;;;;;;;;;;;;;;;5155658;27;1987;-40
2023/04/01 15:51:40;;;;;;;;;;;;;;;;;;5155723;27;1875;-40
2023/04/01 15:54:26;;;;;;;;;;;;;;;;;;5155452;27;1921;-40
2023/04/01 15:56:56;;;;;;;;;;;;;;;;;;5140799;27;2039;-40
2023/04/01 15:59:32;;;;;;;;;;;;;;;;;;5134859;27;1976;-40
2023/04/01 16:02:12;;;;;;;;;;;;;;;;;;5134703;27;1870;-40
2023/04/01 16:04:55;;;;;;;;;;;;;;;;;;5134505;27;1971;-39
2023/04/01 16:07:26;;;;;;;;;;;;;;;;;;5134145;27;2062;-40
2023/04/01 16:10:03;;;;;;;;;;;;;;;;;;5116145;27;2358;-40
2023/04/01 16:12:49;;;;;;;;;;;;;;;;;;5134153;27;1973;-40
2023/04/01 16:15:16;;;;;;;;;;;;;;;;;;5134106;27;2233;-40
2023/04/01 16:17:54;;;;;;;;;;;;;;;;;;5134199;27;1962;-41
2023/04/01 16:20:27;;;;;;;;;;;;;;;;;;5134337;27;1964;-40
2023/04/01 16:23:21;;;;;;;;;;;;;;;;;;5134249;27;1910;-40
2023/04/01 16:25:54;;;;;;;;;;;;;;;;;;5124816;27;1921;-40
2023/04/01 16:28:30;;;;;;;;;;;;;;;;;;5154742;27;1887;-40
2023/04/01 16:31:05;;;;;;;;;;;;;;;;;;5154755;27;1758;-45
2023/04/01 16:33:36;;;;;;;;;;;;;;;;;;5154610;27;1934;-47
2023/04/01 16:36:10;;;;;;;;;;;;;;;;;;5154724;27;2107;-40
2023/04/01 16:38:50;;;;;;;;;;;;;;;;;;5154378;27;1926;-40
2023/04/01 16:41:17;;;;;;;;;;;;;;;;;;5154531;27;1925;-40
2023/04/01 16:43:48;;;;;;;;;;;;;;;;;;5154817;27;1788;-40
2023/04/01 16:46:35;;;;;;;;;;;;;;;;;;5154172;27;2035;-40
2023/04/01 16:49:13;;;;;;;;;;;;;;;;;;5153087;27;1969;-40
2023/04/01 16:52:05;;;;;;;;;;;;;;;;;;5154437;27;1928;-39
2023/04/01 16:54:35;;;;;;;;;;;;;;;;;;5154289;27;1867;-40
2023/04/01 16:57:15;;;;;;;;;;;;;;;;;;5138331;27;2115;-39
2023/04/01 17:00:21;;;;;;;;;;;;;;;;;;5133363;27;2106;-39
2023/04/01 17:03:09;;;;;;;;;;;;;;;;;;5090231;28;2013;-39
2023/04/01 17:05:40;;;;;;;;;;;;;;;;;;5089741;28;1922;-39
2023/04/01 17:08:22;;;;;;;;;;;;;;;;;;5118191;27;1402;-40
2023/04/01 17:11:04;;;;;;;;;;;;;;;;;;5133300;27;1936;-40
2023/04/01 17:13:39;;;;;;;;;;;;;;;;;;5133227;27;2081;-39
2023/04/01 17:16:27;;;;;;;;;;;;;;;;;;5132817;27;1981;-39
2023/04/01 17:19:12;;;;;;;;;;;;;;;;;;5132613;27;2003;-41
2023/04/01 17:21:49;;;;;;;;;;;;;;;;;;5132730;27;1731;-40
2023/04/01 17:24:37;;;;;;;;;;;;;;;;;;5132791;27;1959;-39
2023/04/01 17:27:12;;;;;;;;;;;;;;;;;;5132657;27;2007;-40
2023/04/01 17:29:56;;;;;;;;;;;;;;;;;;5132915;27;1985;-40
2023/04/01 17:32:26;;;;;;;;;;;;;;;;;;5132794;27;1863;-39
2023/04/01 17:34:59;;;;;;;;;;;;;;;;;;5132686;27;1797;-40
2023/04/01 17:37:33;;;;;;;;;;;;;;;;;;5132671;27;2000;-39
2023/04/01 17:40:15;;;;;;;;;;;;;;;;;;5132702;27;1900;-39
2023/04/01 17:42:47;;;;;;;;;;;;;;;;;;5132403;27;1901;-47
2023/04/01 17:45:24;;;;;;;;;;;;;;;;;;5132474;27;2002;-39
2023/04/01 17:48:01;;;;;;;;;;;;;;;;;;5132282;27;1882;-40
2023/04/01 17:50:46;;;;;;;;;;;;;;;;;;5132652;27;1804;-41
2023/04/01 17:53:31;;;;;;;;;;;;;;;;;;5132671;27;1873;-39
2023/04/01 17:56:17;;;;;;;;;;;;;;;;;;5132231;27;1808;-41
2023/04/01 17:58:45;;;;;;;;;;;;;;;;;;5132451;27;1651;-40
2023/04/01 18:01:17;;;;;;;;;;;;;;;;;;5132268;27;2047;-40
2023/04/01 18:04:02;;;;;;;;;;;;;;;;;;5132398;27;1526;-39
2023/04/01 18:06:36;;;;;;;;;;;;;;;;;;5132330;27;2003;-40